Time;durP1;ratioP1;P1;durP2;ratioP2;P2;SDS_P1;SDS_P2;PMS_P1;PMS_P2;Temp;Humidity;BMP_temperature;BMP_pressure;BME280_temperature;BME280_humidity;BME280_pressure;Samples;Min_cycle;Max_cycle;Signal;HPM_P1;HPM_P2
2024/03/30 00:00:49;;;;;;;9.70;2.45;;;;;;;7.53;100.00;98282.22;5043377;28;20048;-72
2024/03/30 00:03:14;;;;;;;7.57;2.40;;;;;;;7.51;100.00;98285.28;5027313;28;20457;-72
2024/03/30 00:05:40;;;;;;;7.97;2.13;;;;;;;7.43;100.00;98288.88;5017275;28;20028;-72
2024/03/30 00:08:06;;;;;;;8.07;2.17;;;;;;;7.46;100.00;98288.22;5021223;28;20029;-72
2024/03/30 00:10:31;;;;;;;6.50;2.00;;;;;;;7.46;100.00;98290.19;5049608;28;20071;-72
2024/03/30 00:12:58;;;;;;;6.78;2.42;;;;;;;7.47;100.00;98289.06;5024823;28;20048;-72
2024/03/30 00:15:27;;;;;;;7.82;2.55;;;;;;;7.46;100.00;98298.47;5063864;28;20056;-72
2024/03/30 00:17:52;;;;;;;10.18;2.63;;;;;;;7.46;100.00;98287.41;5048751;28;20102;-72
2024/03/30 00:20:19;;;;;;;8.50;2.50;;;;;;;7.44;100.00;98287.75;5032760;28;20032;-72
2024/03/30 00:22:45;;;;;;;10.15;2.55;;;;;;;7.44;100.00;98290.53;5034484;28;20043;-72
2024/03/30 00:25:10;;;;;;;6.97;2.35;;;;;;;7.43;100.00;98288.06;5031385;28;20045;-72
2024/03/30 00:27:36;;;;;;;8.93;2.53;;;;;;;7.43;100.00;98285.31;5038419;28;20063;-72
2024/03/30 00:30:01;;;;;;;10.48;2.35;;;;;;;7.38;100.00;98284.38;5022021;28;20045;-72
2024/03/30 00:32:27;;;;;;;8.63;2.13;;;;;;;7.41;100.00;98285.66;5058366;28;20048;-72
2024/03/30 00:34:52;;;;;;;10.90;2.92;;;;;;;7.41;100.00;98284.81;5041832;28;20033;-72
2024/03/30 00:37:18;;;;;;;7.45;2.45;;;;;;;7.36;100.00;98278.34;5004371;28;20040;-72
2024/03/30 00:39:43;;;;;;;7.50;2.35;;;;;;;7.38;100.00;98281.59;5025272;28;20052;-72
2024/03/30 00:42:08;;;;;;;7.55;2.47;;;;;;;7.37;100.00;98285.47;5041210;28;20044;-72
2024/03/30 00:44:34;;;;;;;11.55;2.95;;;;;;;7.37;100.00;98279.97;5041708;28;20044;-72
2024/03/30 00:47:00;;;;;;;8.63;2.70;;;;;;;7.36;100.00;98277.53;5058298;28;20059;-72
2024/03/30 00:49:25;;;;;;;6.38;2.50;;;;;;;7.33;100.00;98275.44;5040233;28;20033;-72
2024/03/30 00:51:51;;;;;;;6.03;2.20;;;;;;;7.31;100.00;98283.22;5035461;28;20041;-72
2024/03/30 00:54:16;;;;;;;6.47;2.67;;;;;;;7.30;100.00;98282.41;5041562;28;20055;-72
2024/03/30 00:56:42;;;;;;;7.55;2.40;;;;;;;7.29;100.00;98288.25;5024548;28;20047;-72
2024/03/30 00:59:07;;;;;;;9.48;2.33;;;;;;;7.31;100.00;98295.09;5008614;28;20032;-72
2024/03/30 01:01:33;;;;;;;7.90;2.30;;;;;;;7.27;100.00;98290.53;5057706;28;20448;-72
2024/03/30 01:03:58;;;;;;;8.75;2.20;;;;;;;7.24;100.00;98288.41;5024862;28;20480;-72
2024/03/30 01:06:24;;;;;;;6.32;2.28;;;;;;;7.23;100.00;98289.56;5013092;28;20036;-72
2024/03/30 01:08:50;;;;;;;10.35;2.78;;;;;;;7.24;100.00;98280.94;5041147;28;20035;-72
2024/03/30 01:11:16;;;;;;;8.80;2.53;;;;;;;7.23;100.00;98279.34;5015955;28;20419;-72
2024/03/30 01:13:43;;;;;;;9.43;2.40;;;;;;;7.23;100.00;98286.81;5026789;28;20032;-72
2024/03/30 01:16:10;;;;;;;9.93;2.78;;;;;;;7.24;100.00;98280.94;5045123;28;20035;-72
2024/03/30 01:18:39;;;;;;;6.82;2.38;;;;;;;7.23;100.00;98276.56;5046445;28;20413;-72
2024/03/30 01:21:05;;;;;;;13.02;2.97;;;;;;;7.19;100.00;98275.63;5041417;28;20048;-72
2024/03/30 01:23:31;;;;;;;6.50;2.63;;;;;;;7.17;100.00;98286.16;5024734;28;20044;-72
2024/03/30 01:25:59;;;;;;;8.35;2.38;;;;;;;7.20;100.00;98281.94;5037393;28;20495;-72
2024/03/30 01:28:25;;;;;;;7.43;2.53;;;;;;;7.13;100.00;98290.69;5032361;28;20374;-72
2024/03/30 01:30:51;;;;;;;10.68;2.65;;;;;;;7.13;100.00;98279.66;5060092;28;20040;-72
2024/03/30 01:33:17;;;;;;;8.50;2.63;;;;;;;7.11;100.00;98276.44;5012325;28;20036;-72
2024/03/30 01:35:43;;;;;;;10.02;2.75;;;;;;;7.08;100.00;98277.88;5015451;28;20039;-71
2024/03/30 01:38:08;;;;;;;7.32;2.97;;;;;;;7.07;100.00;98276.25;5029999;28;20033;-72
2024/03/30 01:40:34;;;;;;;8.63;2.33;;;;;;;7.07;100.00;98270.72;5048513;28;20086;-72
2024/03/30 01:43:03;;;;;;;10.70;3.00;;;;;;;7.03;100.00;98269.78;5040753;28;20040;-72
2024/03/30 01:45:36;;;;;;;6.75;2.33;;;;;;;7.04;100.00;98265.84;5043660;28;20099;-72
2024/03/30 01:48:03;;;;;;;10.05;2.47;;;;;;;6.97;100.00;98271.06;5045170;28;20107;-72
2024/03/30 01:50:30;;;;;;;7.45;2.92;;;;;;;6.99;100.00;98259.69;5045082;28;20086;-72
2024/03/30 01:52:55;;;;;;;8.52;2.95;;;;;;;7.00;100.00;98255.81;5004064;28;20037;-72
2024/03/30 01:55:21;;;;;;;14.77;3.28;;;;;;;7.01;100.00;98260.19;5027309;28;20044;-72
2024/03/30 01:57:46;;;;;;;10.60;2.72;;;;;;;6.96;100.00;98263.09;5032991;28;20048;-72
2024/03/30 02:00:12;;;;;;;12.82;2.65;;;;;;;6.92;100.00;98254.69;5011779;28;20028;-72
2024/03/30 02:02:37;;;;;;;9.93;2.63;;;;;;;6.90;100.00;98249.47;5043379;28;20124;-72
2024/03/30 02:05:03;;;;;;;6.88;2.33;;;;;;;6.91;100.00;98256.63;5039390;28;20043;-72
2024/03/30 02:07:28;;;;;;;8.43;2.60;;;;;;;6.85;100.00;98249.66;5061301;28;20043;-72
2024/03/30 02:09:54;;;;;;;8.23;2.65;;;;;;;6.86;100.00;98251.28;5044556;28;20036;-72
2024/03/30 02:12:21;;;;;;;5.13;2.30;;;;;;;6.86;100.00;98254.03;5063232;28;20110;-72
2024/03/30 02:14:48;;;;;;;8.40;2.65;;;;;;;6.82;100.00;98246.72;5061153;28;20033;-72
2024/03/30 02:17:13;;;;;;;11.63;2.58;;;;;;;6.82;100.00;98247.53;5024936;28;20043;-72
2024/03/30 02:19:45;;;;;;;9.40;2.70;;;;;;;6.78;100.00;98245.75;5010143;28;20033;-72
2024/03/30 02:22:11;;;;;;;8.30;2.58;;;;;;;6.75;100.00;98244.44;5027659;28;20036;-72
2024/03/30 02:24:36;;;;;;;7.85;2.83;;;;;;;6.74;100.00;98245.56;5044322;28;20454;-72
2024/03/30 02:27:02;;;;;;;6.50;2.33;;;;;;;6.74;100.00;98251.09;5010185;28;20424;-72
2024/03/30 02:29:30;;;;;;;10.73;3.05;;;;;;;6.71;100.00;98243.47;5056582;28;20111;-72
2024/03/30 02:31:56;;;;;;;10.32;2.30;;;;;;;6.71;100.00;98236.03;5058208;28;20036;-73
2024/03/30 02:34:21;;;;;;;8.85;2.33;;;;;;;6.77;100.00;98233.91;5029302;28;20044;-72
2024/03/30 02:36:47;;;;;;;8.50;2.70;;;;;;;6.72;100.00;98242.34;5059437;28;20492;-72
2024/03/30 02:39:12;;;;;;;10.48;2.95;;;;;;;6.74;100.00;98240.06;5054975;28;20041;-72
2024/03/30 02:41:38;;;;;;;10.32;3.00;;;;;;;6.67;100.00;98242.50;5041876;28;20045;-72
2024/03/30 02:44:03;;;;;;;9.15;2.95;;;;;;;6.72;100.00;98229.34;5043861;28;20116;-72
2024/03/30 02:46:29;;;;;;;8.45;2.70;;;;;;;6.69;100.00;98234.72;5027374;28;20032;-72
2024/03/30 02:48:54;;;;;;;6.13;3.15;;;;;;;6.69;100.00;98231.97;5024053;28;20033;-72
2024/03/30 02:51:20;;;;;;;6.85;2.40;;;;;;;6.61;100.00;98235.53;5073511;28;20439;-72
2024/03/30 02:53:45;;;;;;;10.88;2.97;;;;;;;6.65;100.00;98225.44;5044374;28;20033;-72
2024/03/30 02:56:10;;;;;;;6.38;2.50;;;;;;;6.58;100.00;98223.19;5040221;28;20033;-72
2024/03/30 02:58:37;;;;;;;9.45;2.90;;;;;;;6.60;100.00;98217.34;5059619;28;20044;-72
2024/03/30 03:01:02;;;;;;;7.72;2.28;;;;;;;6.58;100.00;98236.97;5043396;28;20210;-72
2024/03/30 03:03:28;;;;;;;7.90;2.88;;;;;;;6.59;100.00;98215.72;5026911;28;20053;-72
2024/03/30 03:05:56;;;;;;;9.52;2.97;;;;;;;6.60;100.00;98217.34;5047864;28;20040;-72
2024/03/30 03:08:24;;;;;;;9.90;3.15;;;;;;;6.58;100.00;98216.88;5060536;28;20028;-72
2024/03/30 03:10:50;;;;;;;14.68;2.83;;;;;;;6.53;100.00;98212.31;5049198;28;20032;-72
2024/03/30 03:13:17;;;;;;;5.15;2.50;;;;;;;6.55;100.00;98220.28;5021371;28;20048;-72
2024/03/30 03:15:43;;;;;;;6.25;2.72;;;;;;;6.53;100.00;98220.59;5058639;28;20041;-72
2024/03/30 03:18:08;;;;;;;10.32;2.78;;;;;;;6.53;100.00;98211.50;5043292;28;20043;-72
2024/03/30 03:20:34;;;;;;;9.25;3.08;;;;;;;6.57;100.00;98216.03;5059666;28;20048;-72
2024/03/30 03:23:00;;;;;;;7.88;2.90;;;;;;;6.55;100.00;98223.03;5043376;28;20036;-72
2024/03/30 03:25:25;;;;;;;13.60;3.45;;;;;;;6.55;100.00;98220.28;5026457;28;20507;-72
2024/03/30 03:27:51;;;;;;;10.10;3.17;;;;;;;6.51;100.00;98219.28;5031524;28;20056;-72
2024/03/30 03:30:16;;;;;;;8.23;2.97;;;;;;;6.48;100.00;98215.22;5024419;28;20488;-72
2024/03/30 03:32:42;;;;;;;10.45;2.70;;;;;;;6.49;100.00;98209.41;5026584;28;20043;-72
2024/03/30 03:35:07;;;;;;;11.65;3.38;;;;;;;6.47;100.00;98219.94;5042591;28;20033;-72
2024/03/30 03:37:32;;;;;;;8.45;3.15;;;;;;;6.44;100.00;98220.56;5021964;28;20040;-72
2024/03/30 03:39:58;;;;;;;7.63;2.90;;;;;;;6.47;100.00;98222.69;5059636;28;20067;-72
2024/03/30 03:42:24;;;;;;;10.85;3.25;;;;;;;6.47;100.00;98230.97;5026337;28;20051;-72
2024/03/30 03:44:49;;;;;;;10.73;3.72;;;;;;;6.48;100.00;98229.81;5039505;28;20037;-72
2024/03/30 03:47:15;;;;;;;13.63;3.28;;;;;;;6.49;100.00;98225.94;5025345;28;20036;-72
2024/03/30 03:49:40;;;;;;;8.05;3.20;;;;;;;6.47;100.00;98225.44;5042334;28;20036;-72
2024/03/30 03:52:05;;;;;;;12.52;3.38;;;;;;;6.49;100.00;98223.19;5042809;28;20043;-72
2024/03/30 03:54:31;;;;;;;7.78;3.38;;;;;;;6.47;100.00;98219.13;5025994;28;20074;-72
2024/03/30 03:56:56;;;;;;;9.02;3.40;;;;;;;6.48;100.00;98221.53;5025945;28;20105;-72
2024/03/30 03:59:22;;;;;;;9.52;2.90;;;;;;;6.45;100.00;98227.69;5026289;28;20350;-72
2024/03/30 04:01:48;;;;;;;7.93;3.22;;;;;;;6.42;100.00;98220.09;5039130;28;20049;-72
2024/03/30 04:04:15;;;;;;;6.95;3.35;;;;;;;6.44;100.00;98212.31;5086916;28;20044;-71
2024/03/30 04:06:40;;;;;;;8.68;3.55;;;;;;;6.38;100.00;98218.28;5042639;28;20037;-72
2024/03/30 04:09:06;;;;;;;11.27;4.00;;;;;;;6.41;100.00;98226.75;5038968;28;20040;-72
2024/03/30 04:11:32;;;;;;;8.95;3.80;;;;;;;6.38;100.00;98229.31;5025315;28;20405;-72
2024/03/30 04:13:58;;;;;;;12.73;3.92;;;;;;;6.46;100.00;98234.03;5038773;28;20032;-72
2024/03/30 04:16:23;;;;;;;9.70;3.42;;;;;;;6.35;100.00;98233.53;5043086;28;20036;-72
2024/03/30 04:18:49;;;;;;;10.05;3.70;;;;;;;6.36;100.00;98234.34;5043837;28;20036;-72
2024/03/30 04:21:14;;;;;;;9.85;3.75;;;;;;;6.40;100.00;98229.81;5025206;28;20045;-72
2024/03/30 04:23:42;;;;;;;9.35;3.40;;;;;;;6.37;100.00;98236.78;5038740;28;20037;-72
2024/03/30 04:26:10;;;;;;;8.32;3.67;;;;;;;6.30;100.00;98230.94;5018596;28;20093;-72
2024/03/30 04:28:35;;;;;;;10.93;3.50;;;;;;;6.32;100.00;98244.38;5038363;28;20489;-72
2024/03/30 04:31:04;;;;;;;8.07;3.85;;;;;;;6.31;100.00;98242.78;5022034;28;20024;-72
2024/03/30 04:33:30;;;;;;;9.38;4.07;;;;;;;6.31;100.00;98238.06;5063650;28;20397;-72
2024/03/30 04:36:03;;;;;;;28.73;13.88;;;;;;;6.30;100.00;98241.16;5025326;28;20041;-72
2024/03/30 04:38:28;;;;;;;16.25;9.25;;;;;;;6.33;100.00;98237.75;5001474;28;20033;-72
2024/03/30 04:41:00;;;;;;;16.55;9.35;;;;;;;6.33;100.00;98235.81;5041208;28;20557;-72
2024/03/30 04:43:26;;;;;;;16.70;8.82;;;;;;;6.28;100.00;98229.63;5058253;28;20393;-72
2024/03/30 04:45:52;;;;;;;19.02;9.45;;;;;;;6.25;100.00;98234.66;5044168;28;20063;-72
2024/03/30 04:48:17;;;;;;;16.80;8.63;;;;;;;6.26;100.00;98230.75;5024957;28;20123;-72
2024/03/30 04:50:43;;;;;;;13.90;8.27;;;;;;;6.23;100.00;98230.59;5035543;28;20067;-72
2024/03/30 04:53:08;;;;;;;13.23;8.10;;;;;;;6.24;100.00;98243.22;5022426;28;20439;-72
2024/03/30 04:55:35;;;;;;;14.32;7.30;;;;;;;6.26;100.00;98229.94;5041683;28;20039;-72
2024/03/30 04:58:00;;;;;;;16.10;7.47;;;;;;;6.20;100.00;98237.56;5041411;28;20044;-72
2024/03/30 05:00:26;;;;;;;14.75;7.25;;;;;;;6.24;100.00;98226.69;5040852;28;20658;-72
2024/03/30 05:02:51;;;;;;;15.73;7.55;;;;;;;6.18;100.00;98227.97;5032200;28;20144;-72
2024/03/30 05:05:17;;;;;;;12.57;6.70;;;;;;;6.19;100.00;98219.41;5041365;28;20071;-72
2024/03/30 05:07:42;;;;;;;10.48;6.07;;;;;;;6.18;100.00;98227.97;5022351;28;20170;-72
2024/03/30 05:10:08;;;;;;;12.43;6.47;;;;;;;6.18;100.00;98217.75;5024935;28;20095;-72
2024/03/30 05:12:34;;;;;;;10.20;6.50;;;;;;;6.15;100.00;98217.59;5022531;28;20045;-72
2024/03/30 05:14:59;;;;;;;11.50;6.50;;;;;;;6.16;100.00;98219.25;5024726;28;20036;-72
2024/03/30 05:17:24;;;;;;;14.38;7.55;;;;;;;6.11;100.00;98225.69;5044412;28;20040;-72
2024/03/30 05:22:34;;;;;;;12.85;6.35;;;;;;;6.10;100.00;98209.47;5040716;28;20038;-72
2024/03/30 05:25:00;;;;;;;10.45;6.15;;;;;;;6.10;100.00;98212.22;5055925;28;20033;-72
2024/03/30 05:27:25;;;;;;;14.43;6.70;;;;;;;6.10;100.00;98206.72;5034691;28;20037;-71
2024/03/30 05:29:50;;;;;;;11.98;6.07;;;;;;;6.06;100.00;98198.28;5038092;28;20037;-71
2024/03/30 05:32:16;;;;;;;10.45;6.47;;;;;;;6.08;100.00;98200.75;5024528;28;20036;-72
2024/03/30 05:34:41;;;;;;;14.25;6.88;;;;;;;6.09;100.00;98205.09;5045794;28;20041;-72
2024/03/30 05:37:07;;;;;;;11.25;6.70;;;;;;;6.01;100.00;98204.75;5024039;28;20036;-71
2024/03/30 05:39:32;;;;;;;12.43;7.28;;;;;;;6.09;100.00;98207.84;5041137;28;20131;-72
2024/03/30 05:41:58;;;;;;;12.55;6.35;;;;;;;6.01;100.00;98206.69;5039675;28;20677;-72
2024/03/30 05:44:23;;;;;;;15.02;7.07;;;;;;;6.05;100.00;98207.69;5024744;28;20032;-72
2024/03/30 05:46:49;;;;;;;11.27;6.25;;;;;;;6.01;100.00;98202.00;5039594;28;20150;-71
2024/03/30 05:49:14;;;;;;;12.25;6.80;;;;;;;6.02;100.00;98211.91;5040692;28;20036;-72
2024/03/30 05:51:39;;;;;;;12.27;5.90;;;;;;;6.00;100.00;98216.91;5036238;28;20039;-72
2024/03/30 05:54:05;;;;;;;10.35;6.45;;;;;;;5.98;100.00;98213.66;5024365;28;20066;-72
2024/03/30 05:56:30;;;;;;;15.32;6.97;;;;;;;5.94;100.00;98206.38;5010365;28;20041;-71
2024/03/30 05:58:56;;;;;;;13.50;6.45;;;;;;;5.95;100.00;98214.31;5024358;28;20040;-72
2024/03/30 06:01:21;;;;;;;12.20;6.22;;;;;;;5.92;100.00;98214.91;5040783;28;20049;-72
2024/03/30 06:03:48;;;;;;;13.93;6.50;;;;;;;5.93;100.00;98222.06;5041153;28;20104;-72
2024/03/30 06:06:13;;;;;;;13.00;6.20;;;;;;;5.90;100.00;98222.69;5024370;28;20036;-72
2024/03/30 06:08:38;;;;;;;15.35;6.72;;;;;;;5.88;100.00;98230.47;5040869;28;20035;-72
2024/03/30 06:11:04;;;;;;;10.90;6.15;;;;;;;5.87;100.00;98233.53;5024211;28;20028;-72
2024/03/30 06:13:29;;;;;;;14.57;6.85;;;;;;;5.86;100.00;98232.72;5027104;28;20086;-71
2024/03/30 06:16:02;;;;;;;11.02;6.57;;;;;;;5.87;100.00;98245.34;5039535;28;20029;-71
2024/03/30 06:18:28;;;;;;;;;;;;;;;5.82;100.00;98242.75;5029882;28;20040;-71
2024/03/30 06:20:53;;;;;;;11.43;6.60;;;;;;;5.88;100.00;98247.00;5030733;28;19908;-71
2024/03/30 06:23:19;;;;;;;9.48;6.55;;;;;;;5.83;100.00;98245.19;5027994;28;20098;-71
2024/03/30 06:25:45;;;;;;;13.40;6.88;;;;;;;5.86;100.00;98246.50;5036053;28;20049;-71
2024/03/30 06:28:10;;;;;;;13.07;6.60;;;;;;;5.86;100.00;98245.69;5031523;28;20092;-71
2024/03/30 06:30:36;;;;;;;12.55;6.53;;;;;;;5.81;100.00;98249.38;5058198;28;20439;-71
2024/03/30 06:33:02;;;;;;;11.43;5.97;;;;;;;5.83;100.00;98253.44;5026812;28;20420;-71
2024/03/30 06:35:28;;;;;;;14.23;6.88;;;;;;;5.85;100.00;98258.66;5044114;28;20055;-71
2024/03/30 06:37:54;;;;;;;13.52;6.38;;;;;;;5.85;100.00;98264.16;5039841;28;20108;-71
2024/03/30 06:45:47;;;;;;;10.52;5.75;;;;;;;5.94;100.00;98275.25;5046284;28;20043;-71
2024/03/30 06:48:13;;;;;;;11.07;5.50;;;;;;;5.97;100.00;98277.38;5024537;28;20405;-71
2024/03/30 06:50:38;;;;;;;14.18;5.65;;;;;;;6.01;100.00;98276.38;5027167;28;20033;-71
2024/03/30 06:53:04;;;;;;;14.38;5.05;;;;;;;6.08;100.00;98284.22;5024557;28;20040;-71
2024/03/30 06:55:29;;;;;;;14.57;5.85;;;;;;;6.09;100.00;98294.09;5060396;28;20067;-71
2024/03/30 06:57:55;;;;;;;13.63;6.07;;;;;;;6.12;100.00;98287.13;5026332;28;20037;-71
2024/03/30 07:00:20;;;;;;;15.57;5.00;;;;;;;6.14;100.00;98288.44;5043704;28;20036;-72
2024/03/30 07:02:46;;;;;;;11.05;4.90;;;;;;;6.19;100.00;98280.03;5012287;28;20052;-71
2024/03/30 07:05:11;;;;;;;8.43;4.97;;;;;;;6.25;100.00;98289.78;5026976;28;20040;-71
2024/03/30 07:07:36;;;;;;;11.32;5.13;;;;;;;6.36;100.00;98284.78;5043386;28;20036;-71
2024/03/30 07:10:02;;;;;;;13.43;4.63;;;;;;;6.38;100.00;98293.56;5060104;28;20036;-71
2024/03/30 07:12:27;;;;;;;8.05;4.28;;;;;;;6.47;100.00;98305.41;5024454;28;20037;-71
2024/03/30 07:14:53;;;;;;;8.82;4.85;;;;;;;6.54;100.00;98302.16;5010561;28;20037;-71
2024/03/30 07:17:18;;;;;;;8.10;4.43;;;;;;;6.58;100.00;98291.34;5062488;28;20040;-72
2024/03/30 07:19:44;;;;;;;7.70;4.25;;;;;;;6.65;100.00;98303.50;5027042;28;20086;-71
2024/03/30 07:22:09;;;;;;;8.48;4.30;;;;;;;6.73;100.00;98301.88;5026755;28;20037;-71
2024/03/30 07:24:35;;;;;;;8.73;5.07;;;;;;;6.80;100.00;98307.75;5026036;28;20040;-71
2024/03/30 07:27:00;;;;;;;6.05;4.40;;;;;;;6.87;100.00;98310.00;5037425;28;20538;-71
2024/03/30 07:29:26;;;;;;;10.77;5.00;;;;;;;6.93;100.00;98309.53;5023193;28;20037;-71
2024/03/30 07:31:53;;;;;;;6.97;4.65;;;;;;;7.02;100.00;98311.47;5026565;28;20036;-71
2024/03/30 07:34:19;;;;;;;7.80;4.88;;;;;;;7.06;100.00;98312.47;5010763;28;20117;-71
2024/03/30 07:36:45;;;;;;;8.52;4.82;;;;;;;7.12;100.00;98316.69;5025495;28;20048;-71
2024/03/30 07:39:10;;;;;;;7.35;4.60;;;;;;;7.18;100.00;98312.63;5042655;28;20041;-72
2024/03/30 07:41:35;;;;;;;6.93;4.60;;;;;;;7.25;100.00;98306.63;5031432;28;20052;-71
2024/03/30 07:44:01;;;;;;;6.65;4.50;;;;;;;7.31;100.00;98327.41;5042761;28;20393;-71
2024/03/30 07:46:26;;;;;;;7.28;4.30;;;;;;;7.35;100.00;98329.19;5039277;28;20036;-71
2024/03/30 07:48:52;;;;;;;7.32;4.75;;;;;;;7.43;100.00;98332.25;5042847;28;20028;-71
2024/03/30 07:51:17;;;;;;;6.22;4.45;;;;;;;7.48;100.00;98332.09;5006396;28;20124;-71
2024/03/30 07:53:43;;;;;;;7.60;4.88;;;;;;;7.53;100.00;98338.28;5041907;28;20566;-71
2024/03/30 07:56:08;;;;;;;11.45;5.85;;;;;;;7.63;100.00;98341.81;5025866;28;20544;-71
2024/03/30 07:58:34;;;;;;;16.02;5.30;;;;;;;7.67;100.00;98349.13;5058911;28;20555;-71
2024/03/30 08:00:59;;;;;;;11.82;5.35;;;;;;;7.71;100.00;98352.84;5039710;28;20049;-71
2024/03/30 08:03:25;;;;;;;11.82;5.60;;;;;;;7.75;100.00;98350.28;5058100;28;20632;-72
2024/03/30 08:05:58;;;;;;;13.55;5.45;;;;;;;7.80;100.00;98361.13;5044118;28;20041;-71
2024/03/30 08:08:23;;;;;;;13.20;5.38;;;;;;;7.83;100.00;98363.25;5059027;28;20158;-72
2024/03/30 08:10:49;;;;;;;11.50;4.80;;;;;;;7.86;100.00;98367.31;5044959;28;20036;-71
2024/03/30 08:13:14;;;;;;;9.52;4.30;;;;;;;7.89;100.00;98361.13;5041999;28;20035;-72
2024/03/30 08:15:40;;;;;;;14.13;6.22;;;;;;;7.93;100.00;98368.41;5042068;28;20040;-72
2024/03/30 08:18:06;;;;;;;8.75;4.80;;;;;;;7.98;100.00;98370.22;5045593;28;20048;-72
2024/03/30 08:20:31;;;;;;;11.57;5.28;;;;;;;8.03;100.00;98378.34;5040153;28;20389;-72
2024/03/30 08:22:57;;;;;;;12.57;5.53;;;;;;;8.07;100.00;98380.09;5025355;28;20039;-72
2024/03/30 08:25:22;;;;;;;15.93;5.85;;;;;;;8.13;100.00;98377.97;5050933;28;20044;-71
2024/03/30 08:27:48;;;;;;;12.18;4.72;;;;;;;8.18;100.00;98374.22;5041977;28;20036;-71
2024/03/30 08:30:14;;;;;;;13.30;5.68;;;;;;;8.22;100.00;98375.19;5038641;28;20428;-72
2024/03/30 08:32:40;;;;;;;10.25;5.72;;;;;;;8.25;100.00;98372.56;5021050;28;20453;-71
2024/03/30 08:35:05;;;;;;;12.27;5.07;;;;;;;8.32;100.00;98377.56;5004913;28;20091;-71
2024/03/30 08:37:31;;;;;;;9.40;4.30;;;;;;;8.36;100.00;98363.88;5041752;28;20032;-71
2024/03/30 08:39:57;;;;;;;12.27;4.93;;;;;;;8.45;100.00;98373.00;5038790;28;20032;-72
2024/03/30 08:42:22;;;;;;;10.65;4.25;;;;;;;8.52;100.00;98376.06;5078846;28;20067;-71
2024/03/30 08:44:48;;;;;;;9.13;4.30;;;;;;;8.58;100.00;98377.53;5021879;28;20045;-72
2024/03/30 08:47:13;;;;;;;9.68;3.85;;;;;;;8.64;100.00;98380.91;5090261;28;20707;-71
2024/03/30 08:49:39;;;;;;;9.18;3.90;;;;;;;8.73;100.00;98379.72;5021914;28;20047;-71
2024/03/30 08:52:05;;;;;;;8.55;3.70;;;;;;;8.78;100.00;98364.88;5056899;28;20035;-71
2024/03/30 08:54:30;;;;;;;8.75;3.20;;;;;;;8.87;100.00;98378.66;5038093;28;20045;-72
2024/03/30 08:56:56;;;;;;;7.13;2.80;;;;;;;8.95;100.00;98372.25;5023530;28;20086;-71
2024/03/30 08:59:21;;;;;;;7.57;2.20;;;;;;;9.05;100.00;98376.59;5021689;28;20488;-71
2024/03/30 09:01:47;;;;;;;12.50;2.60;;;;;;;9.13;100.00;98373.75;5039927;28;20063;-71
2024/03/30 09:04:13;;;;;;;7.78;2.65;;;;;;;9.24;100.00;98382.47;5043621;28;20110;-71
2024/03/30 09:06:38;;;;;;;5.63;2.17;;;;;;;9.37;100.00;98383.38;5021658;28;20032;-71
2024/03/30 09:09:03;;;;;;;7.57;2.90;;;;;;;9.48;100.00;98387.34;5055750;28;20032;-71
2024/03/30 09:11:29;;;;;;;5.75;2.20;;;;;;;9.56;100.00;98383.69;5024768;28;20032;-72
2024/03/30 09:13:55;;;;;;;4.50;2.03;;;;;;;9.69;100.00;98386.53;5005188;28;20037;-71
2024/03/30 09:16:20;;;;;;;5.53;2.05;;;;;;;9.79;100.00;98388.88;5024275;28;20041;-71
2024/03/30 09:18:46;;;;;;;7.07;2.13;;;;;;;9.91;100.00;98388.09;5060045;28;20044;-71
2024/03/30 09:21:11;;;;;;;8.35;2.10;;;;;;;10.01;100.00;98387.69;5041077;28;20036;-71
2024/03/30 09:23:37;;;;;;;6.93;1.77;;;;;;;10.11;100.00;98387.25;5024721;28;20047;-71
2024/03/30 09:26:03;;;;;;;7.03;1.90;;;;;;;10.22;100.00;98396.78;5040077;28;20492;-70
2024/03/30 09:28:28;;;;;;;9.57;2.13;;;;;;;10.29;100.00;98399.81;5028679;28;20040;-71
2024/03/30 09:30:53;;;;;;;5.32;2.05;;;;;;;10.39;100.00;98398.56;5039457;28;20040;-71
2024/03/30 09:33:19;;;;;;;7.13;2.47;;;;;;;10.50;100.00;98398.91;5041266;28;20040;-71
2024/03/30 09:35:45;;;;;;;4.43;1.73;;;;;;;10.58;100.00;98389.66;5034895;28;20040;-71
2024/03/30 09:38:10;;;;;;;8.20;2.25;;;;;;;10.70;100.00;98394.44;5035538;28;20396;-71
2024/03/30 09:40:36;;;;;;;5.47;1.88;;;;;;;10.77;100.00;98397.44;5041272;28;20041;-71
2024/03/30 09:43:01;;;;;;;6.80;2.20;;;;;;;10.85;100.00;98393.72;5057588;28;20389;-71
2024/03/30 09:45:27;;;;;;;5.45;1.83;;;;;;;10.94;100.00;98386.09;5024590;28;20037;-71
2024/03/30 09:47:56;;;;;;;4.78;1.55;;;;;;;11.04;100.00;98395.13;5039159;28;20108;-71
2024/03/30 09:50:22;;;;;;;3.28;1.70;;;;;;;11.12;100.00;98385.84;5045110;28;20436;-71
2024/03/30 09:52:48;;;;;;;8.85;1.58;;;;;;;11.21;100.00;98383.75;5007000;28;20066;-71
2024/03/30 09:55:15;;;;;;;10.90;2.10;;;;;;;11.30;100.00;98381.66;5028144;28;20071;-72
2024/03/30 09:57:41;;;;;;;8.95;1.77;;;;;;;11.43;100.00;98384.41;5025565;28;20055;-71
2024/03/30 10:00:11;;;;;;;5.80;1.65;;;;;;;11.51;100.00;98386.25;5026668;28;20032;-72
2024/03/30 10:02:36;;;;;;;7.50;1.45;;;;;;;11.61;100.00;98391.28;5026019;28;20056;-72
2024/03/30 10:05:03;;;;;;;5.47;1.48;;;;;;;11.70;100.00;98400.31;5043552;28;20037;-71
2024/03/30 10:07:33;;;;;;;7.88;1.50;;;;;;;11.81;100.00;98401.44;5036722;28;20032;-71
2024/03/30 10:10:00;;;;;;;6.72;1.65;;;;;;;11.90;100.00;98392.97;5041455;28;20421;-72
2024/03/30 10:12:29;;;;;;;6.53;1.50;;;;;;;12.01;100.00;98398.81;5040262;28;20033;-71
2024/03/30 10:14:54;;;;;;;8.65;1.48;;;;;;;12.09;100.00;98395.09;5044763;28;20064;-72
2024/03/30 10:17:20;;;;;;;5.75;1.80;;;;;;;12.16;100.00;98400.81;5041678;28;20044;-72
2024/03/30 10:19:45;;;;;;;8.73;1.70;;;;;;;12.27;100.00;98396.34;5044330;28;20041;-72
2024/03/30 10:22:11;;;;;;;8.57;1.70;;;;;;;12.34;100.00;98384.63;5044252;28;20036;-71
2024/03/30 10:24:36;;;;;;;5.22;1.70;;;;;;;12.44;100.00;98383.28;5044480;28;20056;-71
2024/03/30 10:27:02;;;;;;;7.40;1.42;;;;;;;12.54;100.00;98379.97;5037010;28;20412;-71
2024/03/30 10:29:27;;;;;;;6.25;1.20;;;;;;;12.66;100.00;98379.84;5024555;28;20094;-73
2024/03/30 10:31:53;;;;;;;6.65;1.73;;;;;;;12.73;100.00;98385.63;5040773;28;20047;-73
2024/03/30 10:34:18;;;;;;;6.07;1.42;;;;;;;12.88;100.00;98377.59;5010258;28;20041;-73
2024/03/30 10:36:46;;;;;;;8.05;1.65;;;;;;;13.00;100.00;98385.84;5041411;28;20468;-72
2024/03/30 10:39:13;;;;;;;8.65;1.50;;;;;;;13.09;100.00;98369.75;5047074;28;20032;-72
2024/03/30 10:41:38;;;;;;;7.15;1.73;;;;;;;13.18;100.00;98367.56;5027515;28;20036;-72
2024/03/30 10:44:04;;;;;;;4.15;1.40;;;;;;;13.28;100.00;98368.19;5027136;28;20415;-73
2024/03/30 10:46:29;;;;;;;9.27;1.80;;;;;;;13.34;100.00;98369.53;5039295;28;20051;-73
2024/03/30 10:48:55;;;;;;;5.28;1.13;;;;;;;13.41;100.00;98358.53;5018611;28;20429;-73
2024/03/30 10:51:21;;;;;;;6.25;1.30;;;;;;;13.54;100.00;98359.19;5039390;28;20051;-73
2024/03/30 10:53:48;;;;;;;6.53;1.70;;;;;;;13.57;100.00;98345.34;5038105;28;20044;-73
2024/03/30 10:56:13;;;;;;;8.75;1.60;;;;;;;13.67;100.00;98351.50;5043170;28;20472;-72
2024/03/30 10:58:40;;;;;;;6.72;1.50;;;;;;;13.74;100.00;98348.88;5017081;28;20144;-72
2024/03/30 11:01:05;;;;;;;6.68;1.50;;;;;;;13.76;100.00;98354.88;5057900;28;20047;-74
2024/03/30 11:03:31;;;;;;;10.55;1.52;;;;;;;13.76;100.00;98340.91;5056996;28;20041;-73
2024/03/30 11:05:58;;;;;;;4.90;1.20;;;;;;;13.78;100.00;98338.56;5016757;28;20480;-72
2024/03/30 11:08:23;;;;;;;6.47;1.33;;;;;;;13.83;100.00;98341.88;5027030;28;20047;-72
2024/03/30 11:10:48;;;;;;;5.72;1.50;;;;;;;13.88;100.00;98342.78;5026651;28;20420;-73
2024/03/30 11:13:14;;;;;;;12.35;1.60;;;;;;;13.85;100.00;98339.53;5043219;28;20032;-73
2024/03/30 11:15:41;;;;;;;8.80;1.33;;;;;;;13.91;100.00;98348.41;5039885;28;20087;-73
2024/03/30 11:18:12;;;;;;;13.85;1.90;;;;;;;13.89;100.00;98344.38;5043507;28;20653;-73
2024/03/30 11:21:04;;;;;;;9.95;1.98;;;;;;;13.89;100.00;98341.59;5059523;28;20052;-73
2024/03/30 11:23:48;;;;;;;12.30;1.80;;;;;;;14.00;100.00;98345.38;5030987;28;20032;-74
2024/03/30 11:26:13;;;;;;;8.80;1.45;;;;;;;14.01;100.00;98345.03;5026983;28;20041;-73
2024/03/30 11:28:54;;;;;;;7.13;1.42;;;;;;;14.22;100.00;98338.22;5043495;28;20528;-73
2024/03/30 11:31:29;;;;;;;9.50;1.88;;;;;;;14.40;100.00;98330.97;5027315;28;20115;-73